Terminal Aerodrome Forecast
Issued by NWS North Platte, NE

Home | Current Version | Previous Version | Graphics & Text | Print | Product List | Glossary On
Versions: 1 2 3 4 5 6 7 8 9 10 11 12 13 14 15 16 17 18 19 20 21
223
FTUS43 KLBF 290520
TAFVTN
TAF
KVTN 290520Z 2906/3006 31006KT 4SM BR SCT005 BKN015
      TEMPO 2907/2909 OVC005
     FM290900 02006KT 2SM BR OVC003
     FM291700 05008KT P6SM OVC009
     FM292000 04009KT P6SM OVC015
     FM292200 05009KT 4SM -RA BR OVC007
     FM300200 01006KT 4SM -RA BR OVC005=

USA.gov is the U.S. government's official web portal to all federal, state and local government web resources and services.